Pagrindinis puslapis
METAR-TAF:

METAR-TAF

Oro uostai :

Le Luc, Prancūzija

platuma: 43-23N, ilguma: 006-23E, Aukštis: 80 m

Dabartinis oras

Ataskaita buvo paskelbta 40 minutes, ne 03:30 UTC
Vėjas 3 kt iš Šiaurės Vakarų
Temperatūra 20°C
Drėgmė 78%
Slėgis 1014 hPa
Matomumas 10 km arba daugiau

METAR: LFMC 110330Z AUTO 31003KT 9999 ////// 20/16 Q1014

Laikas: 06:10 (04:10 UTC)


TAF: trūkstamas

Orai ataskaitas ir orų prognozės (METAR, TAF).

turimą stotys yra geltonos ir raudonos taškus žemėlapyje.

Perkelti pele per norėdami pamatyti stoties vardą.

Tada spustelėkite, norėdami matyti oro stebėjimo ir prognozės.

Norėdami pakeisti žemėlapį: spustelėkite ant žalios mygtukų su juodo kryžiaus žemyn,; žalią mygtuką su brūkšneliu, jei norite nutolinti; arba žalių rodyklių gretimoms žemėlapius.


METAR-TAF: